createdAt,value
2023-03-04T00:01:48.888Z,55.88
2023-03-04T00:04:15.633Z,52.95
2023-03-04T00:06:42.083Z,58.35
2023-03-04T00:09:08.549Z,51.72
2023-03-04T00:11:34.945Z,49.00
2023-03-04T00:14:01.390Z,50.35
2023-03-04T00:16:28.457Z,51.45
2023-03-04T00:18:55.827Z,55.55
2023-03-04T00:21:22.499Z,48.65
2023-03-04T00:23:49.370Z,56.15
2023-03-04T00:26:16.491Z,53.97
2023-03-04T00:28:43.371Z,51.08
2023-03-04T00:31:10.378Z,54.92
2023-03-04T00:33:36.834Z,65.75
2023-03-04T00:36:04.601Z,62.55
2023-03-04T00:38:31.038Z,57.03
2023-03-04T00:40:57.619Z,58.85
2023-03-04T00:43:24.278Z,56.42
2023-03-04T00:45:50.653Z,58.13
2023-03-04T00:48:17.239Z,52.55
2023-03-04T00:50:44.298Z,56.85
2023-03-04T00:53:10.849Z,57.45
2023-03-04T00:55:37.663Z,62.08
2023-03-04T00:58:05.126Z,63.13
2023-03-04T01:00:31.490Z,60.78
2023-03-04T01:02:57.866Z,56.47
2023-03-04T01:05:24.308Z,58.92
2023-03-04T01:07:50.736Z,67.53
2023-03-04T01:10:17.852Z,64.40
2023-03-04T01:12:44.329Z,53.63
2023-03-04T01:15:13.109Z,57.45
2023-03-04T01:17:40.141Z,62.20
2023-03-04T01:20:08.110Z,53.88
2023-03-04T01:22:35.368Z,53.03
2023-03-04T01:25:01.882Z,55.83
2023-03-04T01:27:28.279Z,56.00
2023-03-04T01:29:54.683Z,57.03
2023-03-04T01:32:22.501Z,55.75
2023-03-04T01:34:49.005Z,51.30
2023-03-04T01:37:15.388Z,58.38
2023-03-04T01:39:41.850Z,46.72
2023-03-04T01:42:20.428Z,61.63
2023-03-04T01:44:47.973Z,61.95
2023-03-04T01:47:15.358Z,58.13
2023-03-04T01:49:41.902Z,56.92
2023-03-04T01:52:13.589Z,52.85
2023-03-04T01:54:41.096Z,59.30
2023-03-04T01:57:19.709Z,57.95
2023-03-04T01:59:47.428Z,54.30
2023-03-04T02:02:14.594Z,56.05
2023-03-04T02:04:42.567Z,48.97
2023-03-04T02:07:09.319Z,45.95
2023-03-04T02:09:37.408Z,48.35
2023-03-04T02:12:04.569Z,50.63
2023-03-04T02:14:31.226Z,52.78
2023-03-04T02:16:57.739Z,47.75
2023-03-04T02:19:29.983Z,49.35
2023-03-04T02:21:56.548Z,51.28
2023-03-04T02:24:33.613Z,49.08
2023-03-04T02:27:00.019Z,48.45
2023-03-04T02:29:27.874Z,48.63
2023-03-04T02:31:55.770Z,53.00
2023-03-04T02:34:24.867Z,49.15
2023-03-04T02:36:54.345Z,48.05
2023-03-04T02:39:20.671Z,48.40
2023-03-04T02:41:49.887Z,50.13
2023-03-04T02:44:38.125Z,51.38
2023-03-04T02:47:07.361Z,50.25
2023-03-04T02:49:36.891Z,53.83
2023-03-04T02:52:10.519Z,54.42
2023-03-04T02:54:38.417Z,52.38
2023-03-04T02:57:08.189Z,54.28
2023-03-04T02:59:38.573Z,50.63
2023-03-04T03:02:06.808Z,53.67
2023-03-04T03:04:36.420Z,53.17
2023-03-04T03:07:07.208Z,54.65
2023-03-04T03:09:33.747Z,58.17
2023-03-04T03:12:00.563Z,54.92
2023-03-04T03:14:28.078Z,52.70
2023-03-04T03:16:54.900Z,53.53
2023-03-04T03:19:21.258Z,57.80
2023-03-04T03:21:47.763Z,59.28
2023-03-04T03:24:14.208Z,59.92
2023-03-04T03:26:40.835Z,63.30
2023-03-04T03:29:07.981Z,61.00
2023-03-04T03:31:34.396Z,64.13
2023-03-04T03:34:00.845Z,58.67
2023-03-04T03:36:27.731Z,63.65
2023-03-04T03:38:54.183Z,57.25
2023-03-04T03:41:20.560Z,60.88
2023-03-04T03:43:47.019Z,55.30
2023-03-04T03:46:13.377Z,58.55
2023-03-04T03:48:39.739Z,53.53
2023-03-04T03:51:06.089Z,57.38
2023-03-04T03:53:32.473Z,52.78
2023-03-04T03:55:59.110Z,55.83
2023-03-04T03:58:26.885Z,56.88
2023-03-04T04:00:53.325Z,58.30
2023-03-04T04:03:19.998Z,64.00
2023-03-04T04:05:46.404Z,58.20
2023-03-04T04:08:17.149Z,58.38
2023-03-04T04:10:44.318Z,52.33
2023-03-04T04:13:11.456Z,56.97
2023-03-04T04:15:38.691Z,54.75
2023-03-04T04:18:06.155Z,59.03
2023-03-04T04:20:32.636Z,48.78
2023-03-04T04:22:59.006Z,57.33
2023-03-04T04:25:25.469Z,57.92
2023-03-04T04:27:51.823Z,52.92
2023-03-04T04:30:18.474Z,53.05
2023-03-04T04:32:44.930Z,56.35
2023-03-04T04:35:11.351Z,50.50
2023-03-04T04:37:37.733Z,56.72
2023-03-04T04:40:04.785Z,51.63
2023-03-04T04:42:31.208Z,53.15
2023-03-04T04:44:57.612Z,55.90
2023-03-04T04:47:24.215Z,54.20
2023-03-04T04:49:51.667Z,52.92
2023-03-04T04:52:18.079Z,57.28
2023-03-04T04:54:44.535Z,52.33
2023-03-04T04:57:10.879Z,52.97
2023-03-04T04:59:37.354Z,57.30
2023-03-04T05:02:03.769Z,51.92
2023-03-04T05:04:30.163Z,53.20
2023-03-04T05:06:56.684Z,54.22
2023-03-04T05:09:23.278Z,49.83
2023-03-04T05:11:49.718Z,49.95
2023-03-04T05:14:16.114Z,53.28
2023-03-04T05:16:42.472Z,49.00
2023-03-04T05:19:09.539Z,56.55
2023-03-04T05:21:35.949Z,52.45
2023-03-04T05:24:02.381Z,51.92
2023-03-04T05:26:28.723Z,57.78
2023-03-04T05:28:55.114Z,53.60
2023-03-04T05:31:21.536Z,53.35
2023-03-04T05:33:47.971Z,55.78
2023-03-04T05:36:14.356Z,51.67
2023-03-04T05:38:40.714Z,54.75
2023-03-04T05:41:07.724Z,51.78
2023-03-04T05:43:35.861Z,51.70
2023-03-04T05:46:03.752Z,51.42
2023-03-04T05:48:30.285Z,50.70
2023-03-04T05:50:58.577Z,54.47
2023-03-04T05:53:25.325Z,55.45
2023-03-04T05:55:51.916Z,54.42
2023-03-04T05:58:19.241Z,60.05
2023-03-04T06:00:46.801Z,54.40
2023-03-04T06:03:20.824Z,60.90
2023-03-04T06:05:47.974Z,60.65
2023-03-04T06:08:14.743Z,56.88
2023-03-04T06:10:41.881Z,60.80
2023-03-04T06:13:09.116Z,50.78
2023-03-04T06:15:35.662Z,57.40
2023-03-04T06:18:02.575Z,55.95
2023-03-04T06:20:29.071Z,55.53
2023-03-04T06:22:55.441Z,53.58
2023-03-04T06:25:22.102Z,55.17
2023-03-04T06:27:50.641Z,52.60
2023-03-04T06:30:17.956Z,53.08
2023-03-04T06:32:44.459Z,50.15
2023-03-04T06:35:12.508Z,54.97
2023-03-04T06:37:39.385Z,56.53
2023-03-04T06:40:07.571Z,53.45
2023-03-04T06:42:35.706Z,51.78
2023-03-04T06:45:03.672Z,50.25
2023-03-04T06:47:30.423Z,49.00
2023-03-04T06:49:56.854Z,45.22
2023-03-04T06:52:23.588Z,49.47
2023-03-04T06:54:50.091Z,51.60
2023-03-04T06:57:16.622Z,47.47
2023-03-04T06:59:43.154Z,49.10
2023-03-04T07:02:12.741Z,46.95
2023-03-04T07:04:40.014Z,43.65
2023-03-04T07:07:06.452Z,44.92
2023-03-04T07:09:32.893Z,51.08
2023-03-04T07:11:59.267Z,44.05
2023-03-04T07:14:25.831Z,45.80
2023-03-04T07:16:52.194Z,43.45
2023-03-04T07:19:18.812Z,45.67
2023-03-04T07:21:45.384Z,41.05
2023-03-04T07:24:11.824Z,46.92
2023-03-04T07:26:38.956Z,42.10
2023-03-04T07:29:06.071Z,43.63
2023-03-04T07:31:34.654Z,37.63
2023-03-04T07:34:04.587Z,41.80
2023-03-04T07:36:31.435Z,46.55
2023-03-04T07:38:57.935Z,40.50
2023-03-04T07:41:26.599Z,41.97
2023-03-04T07:43:53.599Z,39.83
2023-03-04T07:46:20.257Z,40.40
2023-03-04T07:48:46.660Z,42.60
2023-03-04T07:51:18.890Z,36.92
2023-03-04T07:53:51.014Z,29.45
2023-03-04T07:56:21.536Z,36.45
2023-03-04T07:58:48.576Z,35.67
2023-03-04T08:01:17.839Z,38.33
2023-03-04T08:03:44.752Z,35.08
2023-03-04T08:06:13.879Z,33.83
2023-03-04T08:08:40.357Z,31.92
2023-03-04T08:11:08.767Z,38.55
2023-03-04T08:13:35.766Z,31.85
2023-03-04T08:16:02.854Z,32.22
2023-03-04T08:18:29.293Z,36.35
2023-03-04T08:20:55.820Z,33.13
2023-03-04T08:23:22.417Z,36.53
2023-03-04T08:25:48.900Z,31.42
2023-03-04T08:28:15.626Z,36.28
2023-03-04T08:30:42.748Z,32.85
2023-03-04T08:33:09.927Z,29.20
2023-03-04T08:35:39.660Z,35.63
2023-03-04T08:38:07.177Z,40.35
2023-03-04T08:40:33.993Z,28.38
2023-03-04T08:43:00.667Z,26.77
2023-03-04T08:45:27.099Z,33.17
2023-03-04T08:47:53.508Z,32.95
2023-03-04T08:50:22.303Z,29.83
2023-03-04T08:52:48.977Z,29.98
2023-03-04T08:55:15.607Z,28.77
2023-03-04T08:57:42.101Z,29.38
2023-03-04T09:00:09.169Z,30.75
2023-03-04T09:02:35.532Z,33.05
2023-03-04T09:05:01.917Z,30.77
2023-03-04T09:07:28.392Z,34.33
2023-03-04T09:09:54.894Z,35.35
2023-03-04T09:12:21.300Z,33.45
2023-03-04T09:14:53.302Z,34.72
2023-03-04T09:17:27.610Z,36.03
2023-03-04T09:19:53.984Z,32.50
2023-03-04T09:22:20.545Z,29.67
2023-03-04T09:24:46.952Z,31.20
2023-03-04T09:27:13.319Z,31.23
2023-03-04T09:29:39.741Z,27.63
2023-03-04T09:32:06.625Z,28.40
2023-03-04T09:34:33.210Z,30.45
2023-03-04T09:36:59.595Z,30.58
2023-03-04T09:39:26.224Z,36.50
2023-03-04T09:41:58.629Z,31.40
2023-03-04T09:44:37.388Z,31.27
2023-03-04T09:47:10.888Z,27.50
2023-03-04T09:49:40.574Z,29.77
2023-03-04T09:52:37.603Z,26.75
2023-03-04T09:55:17.844Z,24.98
2023-03-04T09:57:53.683Z,28.15
2023-03-04T10:00:38.775Z,32.60
2023-03-04T10:03:18.452Z,29.30
2023-03-04T10:05:49.852Z,25.20
2023-03-04T10:08:41.564Z,29.10
2023-03-04T10:11:15.861Z,23.80
2023-03-04T10:13:53.287Z,25.80
2023-03-04T10:16:23.077Z,27.65
2023-03-04T10:19:14.596Z,27.70
2023-03-04T10:21:49.592Z,30.98
2023-03-04T10:24:20.126Z,23.33
2023-03-04T10:26:51.332Z,27.25
2023-03-04T10:29:20.630Z,31.55
2023-03-04T10:31:47.231Z,25.52
2023-03-04T10:34:15.915Z,27.10
2023-03-04T10:37:01.951Z,27.60
2023-03-04T10:39:31.634Z,27.17
2023-03-04T10:41:59.884Z,29.77
2023-03-04T10:44:27.375Z,27.40
2023-03-04T10:46:55.919Z,25.65
2023-03-04T10:49:25.014Z,25.85
2023-03-04T10:51:57.530Z,25.38
2023-03-04T10:54:29.615Z,21.77
2023-03-04T10:57:00.425Z,27.92
2023-03-04T10:59:41.909Z,27.73
2023-03-04T11:02:23.122Z,24.20
2023-03-04T11:05:04.778Z,27.60
2023-03-04T11:07:34.105Z,25.85
2023-03-04T11:10:28.243Z,26.50
2023-03-04T11:13:17.540Z,25.90
2023-03-04T11:15:56.816Z,27.92
2023-03-04T11:18:30.480Z,24.95
2023-03-04T11:20:57.768Z,22.17
2023-03-04T11:23:51.915Z,18.90
2023-03-04T11:26:30.649Z,25.60
2023-03-04T11:29:18.262Z,21.13
2023-03-04T11:31:52.205Z,23.33
2023-03-04T11:34:27.182Z,26.08
2023-03-04T11:37:27.886Z,22.15
2023-03-04T11:39:57.090Z,26.38
2023-03-04T11:42:42.223Z,22.58
2023-03-04T11:45:29.135Z,21.35
2023-03-04T11:48:16.356Z,20.38
2023-03-04T11:50:49.725Z,17.42
2023-03-04T11:53:26.603Z,20.67
2023-03-04T11:56:05.364Z,19.63
2023-03-04T11:58:53.320Z,19.48
2023-03-04T12:01:38.414Z,20.83
2023-03-04T12:04:14.233Z,22.58
2023-03-04T12:07:05.559Z,19.50
2023-03-04T12:09:53.848Z,20.75
2023-03-04T12:12:29.343Z,16.80
2023-03-04T12:15:08.102Z,20.55
2023-03-04T12:18:06.803Z,20.50
2023-03-04T12:20:48.433Z,18.50
2023-03-04T12:23:26.313Z,18.55
2023-03-04T12:26:00.485Z,19.73
2023-03-04T12:28:40.664Z,20.13
2023-03-04T12:31:28.463Z,20.98
2023-03-04T12:34:31.332Z,22.48
2023-03-04T12:37:07.743Z,19.67
2023-03-04T12:39:45.509Z,17.27
2023-03-04T12:42:20.888Z,18.58
2023-03-04T12:45:03.000Z,19.98
2023-03-04T12:48:10.945Z,23.27
2023-03-04T12:51:01.006Z,20.02
2023-03-04T12:53:36.052Z,20.33
2023-03-04T12:56:04.907Z,19.23
2023-03-04T12:58:33.720Z,16.75
2023-03-04T13:01:15.762Z,19.80
2023-03-04T13:04:09.453Z,18.60
2023-03-04T13:06:46.482Z,17.30
2023-03-04T13:09:26.832Z,18.15
2023-03-04T13:12:02.941Z,25.55
2023-03-04T13:14:31.399Z,17.17
2023-03-04T13:17:01.737Z,18.65
2023-03-04T13:19:46.314Z,15.07
2023-03-04T13:22:35.209Z,15.82
2023-03-04T13:25:20.562Z,21.45
2023-03-04T13:27:50.455Z,18.02
2023-03-04T13:30:32.199Z,16.50
2023-03-04T13:33:18.979Z,18.20
2023-03-04T13:35:51.154Z,17.40
2023-03-04T13:38:26.796Z,20.08
2023-03-04T13:41:15.059Z,20.67
2023-03-04T13:43:55.434Z,17.30
2023-03-04T13:46:24.609Z,16.30
2023-03-04T13:48:51.032Z,16.60
2023-03-04T13:51:29.667Z,16.50
2023-03-04T13:53:59.295Z,19.15
2023-03-04T13:56:37.469Z,19.35
2023-03-04T13:59:27.080Z,20.70
2023-03-04T14:02:00.923Z,20.08
2023-03-04T14:04:36.038Z,19.52
2023-03-04T14:07:19.143Z,17.10
2023-03-04T14:10:23.074Z,17.85
2023-03-04T14:12:57.925Z,19.30
2023-03-04T14:15:31.881Z,21.98
2023-03-04T14:18:00.863Z,16.75
2023-03-04T14:20:33.166Z,20.08
2023-03-04T14:23:01.828Z,18.27
2023-03-04T14:25:30.775Z,25.20
2023-03-04T14:28:13.713Z,22.75
2023-03-04T14:30:43.974Z,17.42
2023-03-04T14:33:21.069Z,17.40
2023-03-04T14:35:50.773Z,16.17
2023-03-04T14:38:23.331Z,16.13
2023-03-04T14:41:16.477Z,16.95
2023-03-04T14:44:01.544Z,18.65
2023-03-04T14:46:34.669Z,20.88
2023-03-04T14:51:48.045Z,17.75
2023-03-04T14:54:26.689Z,20.55
2023-03-04T14:56:53.119Z,17.13
2023-03-04T14:59:36.632Z,18.58
2023-03-04T15:02:35.467Z,15.90
2023-03-04T15:05:16.925Z,19.73
2023-03-04T15:07:49.529Z,22.50
2023-03-04T15:10:22.025Z,19.43
2023-03-04T15:12:57.256Z,20.52
2023-03-04T15:15:33.224Z,19.20
2023-03-04T15:18:14.121Z,22.52
2023-03-04T15:20:40.556Z,20.27
2023-03-04T15:23:07.319Z,19.17
2023-03-04T15:25:34.485Z,22.70
2023-03-04T15:28:03.775Z,20.42
2023-03-04T15:30:34.370Z,27.10
2023-03-04T15:33:01.121Z,18.33
2023-03-04T15:35:31.766Z,21.02
2023-03-04T15:37:58.672Z,17.63
2023-03-04T15:40:34.262Z,27.33
2023-03-04T15:43:03.321Z,21.92
2023-03-04T15:45:35.770Z,21.27
2023-03-04T15:48:07.631Z,16.55
2023-03-04T15:50:36.042Z,18.63
2023-03-04T15:53:05.621Z,17.77
2023-03-04T15:55:33.342Z,20.50
2023-03-04T15:58:00.509Z,26.27
2023-03-04T16:00:27.383Z,20.02
2023-03-04T16:02:53.853Z,21.58
2023-03-04T16:05:21.374Z,22.63
2023-03-04T16:07:50.220Z,18.38
2023-03-04T16:10:27.938Z,18.95
2023-03-04T16:12:54.794Z,20.90
2023-03-04T16:15:23.506Z,23.17
2023-03-04T16:17:50.463Z,21.60
2023-03-04T16:20:20.713Z,19.70
2023-03-04T16:22:51.151Z,19.02
2023-03-04T16:25:18.207Z,22.02
2023-03-04T16:27:44.768Z,21.92
2023-03-04T16:30:20.622Z,22.77
2023-03-04T16:32:47.031Z,19.00
2023-03-04T16:35:14.899Z,18.23
2023-03-04T16:37:42.353Z,22.83
2023-03-04T16:40:12.701Z,23.65
2023-03-04T16:42:40.021Z,22.90
2023-03-04T16:45:10.370Z,21.20
2023-03-04T16:47:36.761Z,20.60
2023-03-04T16:50:03.327Z,23.52
2023-03-04T16:52:32.088Z,20.50
2023-03-04T16:54:59.183Z,20.65
2023-03-04T16:57:28.319Z,21.80
2023-03-04T16:59:55.234Z,23.90
2023-03-04T17:02:24.337Z,21.83
2023-03-04T17:04:50.763Z,21.05
2023-03-04T17:07:17.145Z,22.95
2023-03-04T17:09:43.983Z,18.95
2023-03-04T17:12:11.947Z,21.85
2023-03-04T17:14:39.304Z,19.17
2023-03-04T17:17:07.471Z,20.88
2023-03-04T17:19:33.842Z,22.20
2023-03-04T17:22:01.644Z,34.22
2023-03-04T17:24:28.317Z,22.90
2023-03-04T17:26:54.799Z,20.35
2023-03-04T17:29:21.206Z,20.85
2023-03-04T17:31:47.689Z,19.55
2023-03-04T17:34:14.248Z,23.20
2023-03-04T17:36:40.775Z,20.98
2023-03-04T17:39:07.379Z,21.92
2023-03-04T17:41:36.026Z,18.15
2023-03-04T17:44:02.994Z,20.48
2023-03-04T17:46:29.993Z,20.70
2023-03-04T17:49:00.264Z,22.90
2023-03-04T17:51:31.639Z,21.20
2023-03-04T17:53:59.213Z,19.92
2023-03-04T17:56:29.920Z,23.08
2023-03-04T17:58:58.007Z,21.63
2023-03-04T18:01:25.042Z,25.35
2023-03-04T18:03:51.959Z,23.67
2023-03-04T18:06:19.078Z,25.13
2023-03-04T18:08:46.151Z,24.55
2023-03-04T18:11:12.601Z,21.75
2023-03-04T18:13:40.392Z,19.75
2023-03-04T18:16:08.826Z,22.15
2023-03-04T18:18:35.994Z,23.83
2023-03-04T18:21:02.876Z,21.10
2023-03-04T18:23:29.673Z,22.67
2023-03-04T18:25:57.254Z,21.75
2023-03-04T18:28:24.193Z,24.60
2023-03-04T18:30:52.249Z,20.48
2023-03-04T18:33:19.403Z,24.27
2023-03-04T18:35:46.094Z,22.83
2023-03-04T18:38:12.685Z,35.25
2023-03-04T18:40:40.450Z,23.15
2023-03-04T18:43:07.070Z,25.23
2023-03-04T18:45:33.493Z,22.65
2023-03-04T18:48:00.326Z,27.52
2023-03-04T18:50:26.848Z,20.02
2023-03-04T18:52:54.095Z,23.35
2023-03-04T18:55:21.792Z,22.60
2023-03-04T18:57:54.493Z,23.48
2023-03-04T19:00:23.167Z,22.95
2023-03-04T19:02:57.098Z,23.35
2023-03-04T19:05:27.569Z,22.88
2023-03-04T19:07:54.252Z,24.55
2023-03-04T19:10:20.934Z,24.05
2023-03-04T19:12:47.756Z,29.75
2023-03-04T19:15:15.303Z,33.10
2023-03-04T19:17:45.156Z,26.38
2023-03-04T19:20:13.300Z,23.17
2023-03-04T19:22:39.687Z,20.88
2023-03-04T19:25:06.683Z,21.95
2023-03-04T19:27:33.111Z,21.10
2023-03-04T19:29:59.471Z,26.42
2023-03-04T19:32:26.154Z,27.00
2023-03-04T19:34:52.678Z,25.70
2023-03-04T19:37:19.073Z,26.90
2023-03-04T19:39:46.003Z,26.27
2023-03-04T19:42:13.254Z,23.02
2023-03-04T19:44:41.271Z,22.60
2023-03-04T19:47:08.548Z,20.67
2023-03-04T19:49:35.092Z,25.17
2023-03-04T19:52:01.939Z,22.92
2023-03-04T19:54:29.469Z,20.50
2023-03-04T19:56:56.449Z,19.85
2023-03-04T19:59:22.874Z,20.30
2023-03-04T20:01:49.367Z,20.00
2023-03-04T20:04:18.269Z,25.63
2023-03-04T20:06:47.432Z,23.77
2023-03-04T20:09:15.347Z,23.60
2023-03-04T20:11:56.784Z,20.75
2023-03-04T20:14:24.923Z,17.73
2023-03-04T20:16:51.408Z,21.88
2023-03-04T20:19:17.790Z,25.55
2023-03-04T20:21:44.308Z,18.55
2023-03-04T20:24:10.761Z,21.38
2023-03-04T20:26:39.311Z,21.75
2023-03-04T20:29:05.693Z,23.95
2023-03-04T20:31:35.757Z,20.50
2023-03-04T20:34:02.186Z,21.52
2023-03-04T20:36:29.517Z,22.90
2023-03-04T20:39:02.272Z,18.90
2023-03-04T20:41:30.009Z,21.05
2023-03-04T20:43:56.519Z,21.42
2023-03-04T20:46:28.763Z,22.42
2023-03-04T20:49:00.724Z,19.35
2023-03-04T20:51:28.890Z,20.97
2023-03-04T20:53:56.359Z,22.98
2023-03-04T20:56:23.909Z,20.88
2023-03-04T20:58:51.744Z,24.00
2023-03-04T21:01:18.401Z,23.60
2023-03-04T21:03:45.367Z,22.77
2023-03-04T21:06:15.629Z,21.67
2023-03-04T21:08:43.708Z,24.63
2023-03-04T21:11:12.095Z,23.20
2023-03-04T21:13:41.041Z,20.48
2023-03-04T21:16:12.393Z,24.35
2023-03-04T21:18:39.526Z,23.00
2023-03-04T21:21:13.709Z,21.63
2023-03-04T21:23:40.174Z,22.65
2023-03-04T21:26:06.890Z,22.95
2023-03-04T21:28:33.845Z,20.52
2023-03-04T21:31:00.531Z,20.65
2023-03-04T21:33:32.061Z,18.05
2023-03-04T21:35:58.605Z,20.73
2023-03-04T21:38:25.153Z,21.10
2023-03-04T21:40:52.085Z,20.48
2023-03-04T21:43:23.771Z,21.83
2023-03-04T21:45:55.459Z,20.52
2023-03-04T21:48:22.889Z,22.48
2023-03-04T21:50:49.788Z,20.42
2023-03-04T21:53:21.221Z,20.23
2023-03-04T21:55:49.309Z,21.30
2023-03-04T21:58:15.815Z,21.90
2023-03-04T22:00:42.594Z,21.25
2023-03-04T22:03:09.262Z,22.42
2023-03-04T22:05:40.582Z,18.75
2023-03-04T22:08:07.090Z,21.05
2023-03-04T22:10:40.478Z,20.52
2023-03-04T22:13:09.131Z,21.02
2023-03-04T22:15:37.694Z,22.60
2023-03-04T22:18:06.655Z,21.45
2023-03-04T22:20:35.135Z,20.13
2023-03-04T22:23:01.714Z,23.92
2023-03-04T22:25:28.452Z,19.38
2023-03-04T22:27:55.243Z,22.70
2023-03-04T22:30:21.989Z,20.88
2023-03-04T22:32:49.435Z,22.90
2023-03-04T22:35:16.077Z,19.73
2023-03-04T22:37:43.547Z,21.33
2023-03-04T22:40:15.017Z,21.85
2023-03-04T22:42:43.353Z,21.77
2023-03-04T22:45:12.358Z,21.70
2023-03-04T22:47:39.183Z,23.27
2023-03-04T22:50:06.491Z,20.50
2023-03-04T22:52:33.293Z,23.58
2023-03-04T22:54:59.679Z,20.20
2023-03-04T22:57:26.092Z,21.00
2023-03-04T22:59:52.497Z,23.92
2023-03-04T23:02:19.063Z,23.05
2023-03-04T23:04:45.478Z,25.75
2023-03-04T23:07:11.872Z,24.02
2023-03-04T23:09:38.252Z,24.63
2023-03-04T23:12:05.049Z,25.77
2023-03-04T23:14:31.465Z,24.08
2023-03-04T23:16:57.891Z,23.23
2023-03-04T23:19:24.387Z,23.38
2023-03-04T23:21:50.812Z,24.50
2023-03-04T23:24:17.173Z,22.00
2023-03-04T23:26:43.739Z,23.92
2023-03-04T23:29:13.580Z,26.98
2023-03-04T23:31:40.036Z,25.52
2023-03-04T23:34:06.860Z,25.52
2023-03-04T23:36:35.249Z,24.02
2023-03-04T23:39:03.095Z,20.30
2023-03-04T23:41:31.009Z,23.75
2023-03-04T23:43:58.615Z,23.42
2023-03-04T23:46:26.155Z,25.85
2023-03-04T23:48:54.175Z,22.80
2023-03-04T23:51:23.832Z,22.45
2023-03-04T23:53:50.227Z,21.30
2023-03-04T23:56:20.106Z,21.13
2023-03-04T23:58:47.241Z,21.73
